createdAt,value
2022-12-29T00:03:17.902Z,99040.23
2022-12-29T00:09:02.404Z,99044.71
2022-12-29T00:20:41.968Z,99049.77
2022-12-29T00:26:08.225Z,99060.33
2022-12-29T00:32:01.466Z,99061.80
2022-12-29T00:44:24.566Z,99052.85
2022-12-29T00:50:31.368Z,99052.64
2022-12-29T01:03:18.528Z,99051.71
2022-12-29T01:09:21.383Z,99055.41
2022-12-29T01:15:05.455Z,99049.64
2022-12-29T01:21:19.787Z,99048.42
2022-12-29T01:27:24.152Z,99039.95
2022-12-29T01:33:14.177Z,99021.94
2022-12-29T01:40:01.862Z,99010.09
2022-12-29T01:53:22.791Z,99011.98
2022-12-29T01:59:01.156Z,99007.29
2022-12-29T02:04:35.449Z,99010.37
2022-12-29T02:10:52.806Z,99004.16
2022-12-29T02:17:20.062Z,98991.43
2022-12-29T02:30:46.962Z,99006.42
2022-12-29T02:38:14.972Z,98995.98
2022-12-29T02:45:22.473Z,98971.64
2022-12-29T02:51:58.327Z,98953.00
2022-12-29T03:05:13.083Z,98948.48
2022-12-29T03:14:10.180Z,98948.11
2022-12-29T03:20:40.011Z,98941.18
2022-12-29T03:26:41.285Z,98942.40
2022-12-29T03:32:56.314Z,98949.65
2022-12-29T03:39:13.284Z,98955.23
2022-12-29T03:45:20.427Z,98951.77
2022-12-29T03:51:17.416Z,98948.73
2022-12-29T03:57:41.885Z,98950.70
2022-12-29T04:03:32.395Z,98949.48
2022-12-29T04:09:10.535Z,98960.31
2022-12-29T04:14:43.604Z,98953.73
2022-12-29T04:20:55.913Z,98962.48
2022-12-29T04:27:05.810Z,98958.49
2022-12-29T04:33:45.288Z,98942.73
2022-12-29T04:39:38.770Z,98931.33
2022-12-29T04:45:35.227Z,98923.98
2022-12-29T04:51:59.333Z,98912.30
2022-12-29T04:58:22.382Z,98910.80
2022-12-29T05:04:38.245Z,98906.94
2022-12-29T05:10:45.320Z,98912.05
2022-12-29T05:17:09.549Z,98904.89
2022-12-29T05:23:23.905Z,98902.07
2022-12-29T05:29:48.173Z,98892.70
2022-12-29T05:35:34.269Z,98890.91
2022-12-29T05:42:08.324Z,98897.37
2022-12-29T06:03:15.589Z,98912.80
2022-12-29T06:09:49.794Z,98907.00
2022-12-29T06:16:15.406Z,98892.30
2022-12-29T06:29:41.818Z,98896.17
2022-12-29T06:49:55.181Z,98887.83
2022-12-29T06:56:34.106Z,98888.86
2022-12-29T07:02:38.589Z,98879.11
2022-12-29T07:09:03.102Z,98880.57
2022-12-29T07:15:18.104Z,98879.89
2022-12-29T07:21:33.419Z,98875.02
2022-12-29T07:27:57.678Z,98897.65
2022-12-29T07:54:36.768Z,98871.38
2022-12-29T08:01:01.098Z,98866.22
2022-12-29T08:07:09.133Z,98871.23
2022-12-29T08:32:58.868Z,98866.52
2022-12-29T08:39:23.555Z,98874.27
2022-12-29T08:45:11.414Z,98878.36
2022-12-29T08:51:35.752Z,98873.48
2022-12-29T08:58:00.689Z,98866.69
2022-12-29T09:04:27.819Z,98857.86
2022-12-29T09:10:14.266Z,98854.42
2022-12-29T09:16:33.539Z,98857.23
2022-12-29T09:22:42.844Z,98847.85
2022-12-29T09:29:07.397Z,98832.55
2022-12-29T09:35:31.942Z,98820.77
2022-12-29T09:41:47.378Z,98818.57
2022-12-29T09:48:12.180Z,98831.67
2022-12-29T09:54:29.508Z,98830.64
2022-12-29T10:00:39.395Z,98827.92
2022-12-29T10:26:54.443Z,98813.84
2022-12-29T10:40:17.006Z,98800.58
2022-12-29T10:45:41.026Z,98786.48
2022-12-29T10:51:49.047Z,98786.42
2022-12-29T11:11:43.566Z,98756.21
2022-12-29T11:23:57.000Z,98749.13
2022-12-29T11:30:16.488Z,98757.13
2022-12-29T11:36:33.273Z,98749.02
2022-12-29T11:42:19.346Z,98742.63
2022-12-29T11:47:44.901Z,98744.87
2022-12-29T12:00:45.993Z,98728.98
2022-12-29T12:05:11.126Z,98736.68
2022-12-29T12:07:20.879Z,98724.59
2022-12-29T12:12:58.098Z,98720.66
2022-12-29T12:18:53.523Z,98715.95
2022-12-29T12:38:35.518Z,98717.95
2022-12-29T12:44:12.483Z,98715.21
2022-12-29T12:49:41.581Z,98719.70
2022-12-29T12:55:45.645Z,98718.21
2022-12-29T13:01:50.071Z,98712.08
2022-12-29T13:08:38.495Z,98717.56
2022-12-29T13:14:57.966Z,98725.73
2022-12-29T13:21:07.372Z,98720.42
2022-12-29T13:27:08.674Z,98723.38
2022-12-29T13:33:04.159Z,98733.11
2022-12-29T13:38:38.480Z,98741.42
2022-12-29T13:49:35.277Z,98752.73
2022-12-29T13:54:48.132Z,98757.51
2022-12-29T14:00:23.965Z,98746.65
2022-12-29T14:05:32.901Z,98738.95
2022-12-29T14:11:14.767Z,98735.88
2022-12-29T14:16:46.940Z,98737.11
2022-12-29T14:22:39.634Z,98738.42
2022-12-29T14:28:46.188Z,98734.28
2022-12-29T14:34:43.129Z,98738.69
2022-12-29T14:40:05.697Z,98734.52
2022-12-29T14:45:20.015Z,98741.41
2022-12-29T14:51:28.903Z,98745.23
2022-12-29T14:56:48.710Z,98751.15
2022-12-29T15:02:41.263Z,98757.73
2022-12-29T15:08:45.517Z,98768.49
2022-12-29T15:13:49.925Z,98762.40
2022-12-29T15:19:52.915Z,98759.11
2022-12-29T15:24:59.429Z,98760.37
2022-12-29T15:30:25.588Z,98765.39
2022-12-29T15:49:40.117Z,98768.06
2022-12-29T15:55:33.233Z,98768.20
2022-12-29T16:01:31.855Z,98762.02
2022-12-29T16:07:26.118Z,98772.20
2022-12-29T16:12:57.291Z,98777.25
2022-12-29T16:18:01.167Z,98774.11
2022-12-29T16:23:31.010Z,98771.78
2022-12-29T16:29:48.259Z,98772.56
2022-12-29T16:50:32.707Z,98766.99
2022-12-29T17:24:03.492Z,98773.46
2022-12-29T17:30:36.268Z,98778.30
2022-12-29T17:37:19.563Z,98780.87
2022-12-29T17:42:49.788Z,98784.02
2022-12-29T17:48:55.560Z,98782.82
2022-12-29T17:55:18.366Z,98788.82
2022-12-29T18:01:31.071Z,98788.55
2022-12-29T18:14:29.739Z,98788.11
2022-12-29T18:20:26.609Z,98799.25
2022-12-29T18:26:10.892Z,98790.94
2022-12-29T18:32:04.150Z,98791.67
2022-12-29T18:44:27.758Z,98794.27
2022-12-29T18:50:39.206Z,98790.94
2022-12-29T19:04:21.446Z,98785.61
2022-12-29T19:22:56.349Z,98770.13
2022-12-29T19:35:00.119Z,98766.86
2022-12-29T19:40:37.534Z,98770.47
2022-12-29T19:46:20.208Z,98784.16
2022-12-29T19:51:29.243Z,98787.65
2022-12-29T19:57:03.003Z,98784.19
2022-12-29T20:02:35.126Z,98779.44
2022-12-29T20:08:52.409Z,98774.31
2022-12-29T20:14:05.232Z,98776.23
2022-12-29T20:19:41.854Z,98785.30
2022-12-29T20:24:49.980Z,98783.17
2022-12-29T20:30:25.459Z,98778.02
2022-12-29T20:36:15.327Z,98781.20
2022-12-29T20:41:28.025Z,98793.04
2022-12-29T20:46:43.303Z,98796.15
2022-12-29T20:52:11.164Z,98794.98
2022-12-29T20:57:24.497Z,98796.09
2022-12-29T21:02:34.107Z,98801.46
2022-12-29T21:07:44.072Z,98799.20
2022-12-29T21:12:54.031Z,98801.83
2022-12-29T21:18:34.456Z,98801.46
2022-12-29T21:29:45.004Z,98797.22
2022-12-29T21:35:20.679Z,98797.14
2022-12-29T21:40:24.009Z,98812.15
2022-12-29T21:45:34.457Z,98811.41
2022-12-29T21:51:01.682Z,98815.00
2022-12-29T21:56:10.519Z,98812.72
2022-12-29T22:01:33.356Z,98808.16
2022-12-29T22:06:57.692Z,98801.27
2022-12-29T22:12:27.017Z,98802.30
2022-12-29T22:18:33.343Z,98805.58
2022-12-29T22:24:35.648Z,98813.83
2022-12-29T22:30:00.476Z,98819.34
2022-12-29T22:35:43.211Z,98819.09
2022-12-29T22:41:03.215Z,98822.98
2022-12-29T22:46:34.255Z,98820.58
2022-12-29T22:53:24.557Z,98829.14
2022-12-29T22:58:05.827Z,98839.08
2022-12-29T23:05:01.911Z,98835.64
2022-12-29T23:16:07.502Z,98827.77
2022-12-29T23:21:28.079Z,98838.97
2022-12-29T23:27:20.762Z,98830.11
2022-12-29T23:33:40.051Z,98832.61
2022-12-29T23:40:12.147Z,98834.01
2022-12-29T23:46:28.583Z,98830.77
2022-12-29T23:52:12.669Z,98828.98
2022-12-29T23:57:56.923Z,98827.36
